Time;durP1;ratioP1;P1;durP2;ratioP2;P2;SDS_P1;SDS_P2;PMS_P1;PMS_P2;Temp;Humidity;BMP_temperature;BMP_pressure;BME280_temperature;BME280_humidity;BME280_pressure;Samples;Min_cycle;Max_cycle;Signal;HPM_P1;HPM_P2
2022/08/21 00:01:28;;;;;;;3.47;1.50;;;;;;;;;;5052189;28;20721;-86
2022/08/21 00:03:57;;;;;;;1.85;1.75;;;;;;;;;;5052102;28;20293;-86
2022/08/21 00:06:25;;;;;;;1.55;1.45;;;;;;;;;;5051909;28;20197;-86
2022/08/21 00:08:53;;;;;;;1.75;1.65;;;;;;;;;;5051596;28;20225;-86
2022/08/21 00:11:20;;;;;;;1.55;1.20;;;;;;;;;;5051660;28;20801;-87
2022/08/21 00:13:48;;;;;;;1.30;1.20;;;;;;;;;;5055314;28;20729;-87
2022/08/21 00:16:16;;;;;;;2.00;1.42;;;;;;;;;;5055757;28;20233;-86
2022/08/21 00:18:44;;;;;;;2.13;1.27;;;;;;;;;;5056076;28;20641;-86
2022/08/21 00:21:15;;;;;;;1.30;1.20;;;;;;;;;;5055523;28;20251;-86
2022/08/21 00:23:43;;;;;;;1.30;1.20;;;;;;;;;;5055635;28;20209;-86
2022/08/21 00:26:11;;;;;;;1.33;1.00;;;;;;;;;;5056102;28;20284;-86
2022/08/21 00:28:38;;;;;;;2.15;1.60;;;;;;;;;;5055442;28;20300;-86
2022/08/21 00:31:06;;;;;;;0.93;0.93;;;;;;;;;;5055641;28;20665;-86
2022/08/21 00:33:34;;;;;;;1.10;1.10;;;;;;;;;;5055990;28;20288;-86
2022/08/21 00:36:02;;;;;;;1.55;1.45;;;;;;;;;;5055559;28;20661;-86
2022/08/21 00:38:31;;;;;;;2.40;1.65;;;;;;;;;;5055305;28;20288;-86
2022/08/21 00:41:02;;;;;;;1.48;1.35;;;;;;;;;;5055043;28;20232;-87
2022/08/21 00:43:34;;;;;;;1.30;1.20;;;;;;;;;;5055619;28;20210;-86
2022/08/21 00:46:02;;;;;;;1.40;1.20;;;;;;;;;;5055175;28;20670;-86
2022/08/21 00:48:30;;;;;;;2.92;1.38;;;;;;;;;;5055078;28;20316;-86
2022/08/21 00:51:05;;;;;;;2.08;1.67;;;;;;;;;;5054923;28;20236;-85
2022/08/21 00:53:37;;;;;;;1.70;1.60;;;;;;;;;;5055232;28;20288;-85
2022/08/21 00:56:07;;;;;;;1.58;1.48;;;;;;;;;;5055186;28;20293;-85
2022/08/21 00:58:36;;;;;;;1.58;1.17;;;;;;;;;;5055311;28;20202;-85
2022/08/21 01:01:06;;;;;;;1.38;1.33;;;;;;;;;;5055071;28;20226;-85
2022/08/21 01:03:35;;;;;;;1.55;1.30;;;;;;;;;;5054800;28;20206;-85
2022/08/21 01:06:04;;;;;;;1.80;1.65;;;;;;;;;;5055196;28;20256;-85
2022/08/21 01:08:32;;;;;;;1.40;1.30;;;;;;;;;;5054851;28;20309;-85
2022/08/21 01:11:01;;;;;;;1.50;1.40;;;;;;;;;;5054882;28;20308;-85
2022/08/21 01:13:31;;;;;;;2.17;1.90;;;;;;;;;;5054660;28;20270;-85
2022/08/21 01:16:00;;;;;;;1.95;1.85;;;;;;;;;;5054643;28;20285;-85
2022/08/21 01:18:29;;;;;;;2.20;1.70;;;;;;;;;;5054489;28;20288;-84
2022/08/21 01:21:08;;;;;;;1.27;1.15;;;;;;;;;;5054353;28;20275;-85
2022/08/21 01:23:38;;;;;;;2.25;1.50;;;;;;;;;;5054501;28;20212;-85
2022/08/21 01:26:07;;;;;;;2.45;1.40;;;;;;;;;;5054837;28;20233;-85
2022/08/21 01:28:38;;;;;;;1.63;1.52;;;;;;;;;;5054700;28;20657;-85
2022/08/21 01:31:08;;;;;;;2.00;1.83;;;;;;;;;;5054611;28;20221;-85
2022/08/21 01:33:36;;;;;;;1.98;1.70;;;;;;;;;;5054509;28;20229;-85
2022/08/21 01:36:06;;;;;;;2.50;1.77;;;;;;;;;;5054231;28;20292;-85
2022/08/21 01:38:33;;;;;;;2.78;1.77;;;;;;;;;;5054142;28;20583;-85
2022/08/21 01:41:01;;;;;;;2.63;1.50;;;;;;;;;;5054100;28;20312;-84
2022/08/21 01:43:28;;;;;;;1.70;1.60;;;;;;;;;;5054124;28;20662;-85
2022/08/21 01:45:56;;;;;;;1.55;1.27;;;;;;;;;;5053994;28;20220;-85
2022/08/21 01:48:23;;;;;;;2.67;1.40;;;;;;;;;;5053431;28;20292;-85
2022/08/21 01:50:51;;;;;;;1.42;1.33;;;;;;;;;;5053849;28;20233;-85
2022/08/21 01:53:20;;;;;;;1.98;1.40;;;;;;;;;;5053901;28;20292;-85
2022/08/21 01:55:47;;;;;;;1.50;1.40;;;;;;;;;;5053548;28;20293;-85
2022/08/21 01:58:15;;;;;;;1.00;1.00;;;;;;;;;;5053745;28;20654;-85
2022/08/21 02:00:42;;;;;;;1.17;1.10;;;;;;;;;;5054001;28;20213;-85
2022/08/21 02:03:10;;;;;;;1.50;1.40;;;;;;;;;;5053810;28;20285;-85
2022/08/21 02:05:37;;;;;;;1.33;1.20;;;;;;;;;;5053387;28;20202;-85
2022/08/21 02:08:06;;;;;;;1.65;1.50;;;;;;;;;;5053445;28;20208;-84
2022/08/21 02:10:35;;;;;;;2.72;1.65;;;;;;;;;;5053726;28;20225;-85
2022/08/21 02:13:02;;;;;;;2.95;2.35;;;;;;;;;;5053691;28;20296;-85
2022/08/21 02:15:31;;;;;;;2.03;1.42;;;;;;;;;;5053897;28;20304;-85
2022/08/21 02:18:02;;;;;;;1.35;1.25;;;;;;;;;;5053347;28;20300;-85
2022/08/21 02:20:34;;;;;;;1.50;1.40;;;;;;;;;;5053170;28;20249;-85
2022/08/21 02:23:01;;;;;;;1.67;1.50;;;;;;;;;;5053795;28;20256;-84
2022/08/21 02:25:30;;;;;;;2.75;1.77;;;;;;;;;;5053820;28;20673;-85
2022/08/21 02:28:01;;;;;;;2.30;1.63;;;;;;;;;;5052989;28;20288;-85
2022/08/21 02:30:32;;;;;;;1.73;1.55;;;;;;;;;;5053178;28;20261;-85
2022/08/21 02:33:00;;;;;;;1.50;1.40;;;;;;;;;;5053091;28;20201;-85
2022/08/21 02:35:29;;;;;;;1.88;1.77;;;;;;;;;;5052605;28;20194;-85
2022/08/21 02:37:58;;;;;;;1.83;1.73;;;;;;;;;;5053130;28;20197;-85
2022/08/21 02:40:30;;;;;;;1.83;1.63;;;;;;;;;;5053087;28;20300;-85
2022/08/21 02:42:59;;;;;;;1.85;1.70;;;;;;;;;;5053310;28;20205;-85
2022/08/21 02:45:28;;;;;;;1.70;1.40;;;;;;;;;;5053083;28;20289;-85
2022/08/21 02:47:59;;;;;;;4.82;2.20;;;;;;;;;;5052917;28;20198;-86
2022/08/21 02:50:29;;;;;;;2.58;2.38;;;;;;;;;;5052644;28;20315;-85
2022/08/21 02:52:57;;;;;;;1.75;1.65;;;;;;;;;;5053057;28;20302;-85
2022/08/21 02:55:29;;;;;;;1.90;1.80;;;;;;;;;;5052936;28;20296;-85
2022/08/21 02:57:59;;;;;;;3.38;2.20;;;;;;;;;;5052603;28;20281;-85
2022/08/21 03:00:30;;;;;;;2.28;2.17;;;;;;;;;;5052900;28;20319;-85
2022/08/21 03:02:58;;;;;;;1.75;1.63;;;;;;;;;;5052848;28;20284;-85
2022/08/21 03:05:28;;;;;;;1.80;1.70;;;;;;;;;;5052698;28;20296;-85
2022/08/21 03:07:58;;;;;;;1.73;1.63;;;;;;;;;;5052510;28;20285;-85
2022/08/21 03:10:26;;;;;;;1.90;1.80;;;;;;;;;;5052251;28;20221;-85
2022/08/21 03:12:54;;;;;;;2.58;1.70;;;;;;;;;;5052554;28;20276;-85
2022/08/21 03:15:25;;;;;;;2.28;1.75;;;;;;;;;;5052738;28;20209;-85
2022/08/21 03:17:54;;;;;;;2.00;1.80;;;;;;;;;;5051750;28;20292;-85
2022/08/21 03:20:25;;;;;;;1.77;1.63;;;;;;;;;;5052123;28;20251;-84
2022/08/21 03:22:53;;;;;;;1.73;1.63;;;;;;;;;;5052648;28;20229;-85
2022/08/21 03:25:21;;;;;;;2.47;1.55;;;;;;;;;;5052223;28;20240;-85
2022/08/21 03:27:48;;;;;;;1.65;1.55;;;;;;;;;;5052097;28;20194;-85
2022/08/21 03:30:17;;;;;;;1.30;1.20;;;;;;;;;;5052067;28;20689;-85
2022/08/21 03:32:46;;;;;;;2.08;1.40;;;;;;;;;;5051916;28;20233;-85
2022/08/21 03:35:15;;;;;;;2.47;1.70;;;;;;;;;;5052016;28;20678;-85
2022/08/21 03:37:42;;;;;;;1.60;1.50;;;;;;;;;;5052119;28;20244;-85
2022/08/21 03:40:13;;;;;;;1.77;1.40;;;;;;;;;;5052163;28;20257;-85
2022/08/21 03:42:40;;;;;;;1.23;1.20;;;;;;;;;;5052050;28;20232;-85
2022/08/21 03:45:10;;;;;;;2.03;1.83;;;;;;;;;;5051972;28;20285;-85
2022/08/21 03:47:38;;;;;;;2.08;1.40;;;;;;;;;;5050923;28;20244;-85
2022/08/21 03:50:08;;;;;;;2.03;1.92;;;;;;;;;;5051771;28;20874;-85
2022/08/21 03:52:35;;;;;;;2.00;1.85;;;;;;;;;;5052240;28;20400;-85
2022/08/21 03:55:03;;;;;;;1.88;1.77;;;;;;;;;;5051628;28;20240;-84
2022/08/21 03:57:30;;;;;;;2.03;1.83;;;;;;;;;;5051648;28;20304;-85
2022/08/21 03:59:58;;;;;;;1.52;1.42;;;;;;;;;;5051448;28;20263;-85
2022/08/21 04:02:25;;;;;;;2.55;1.77;;;;;;;;;;5051778;28;20237;-85
2022/08/21 04:04:53;;;;;;;1.50;1.40;;;;;;;;;;5052061;28;20252;-85
2022/08/21 04:07:22;;;;;;;1.80;1.70;;;;;;;;;;5051607;28;20293;-85
2022/08/21 04:09:49;;;;;;;1.75;1.65;;;;;;;;;;5052239;28;20222;-84
2022/08/21 04:12:17;;;;;;;1.48;1.40;;;;;;;;;;5051333;28;20660;-85
2022/08/21 04:14:44;;;;;;;1.15;1.10;;;;;;;;;;5051117;28;20227;-84
2022/08/21 04:17:11;;;;;;;2.05;1.50;;;;;;;;;;5051385;28;20221;-85
2022/08/21 04:19:39;;;;;;;1.52;1.42;;;;;;;;;;5051372;28;20221;-85
2022/08/21 04:22:07;;;;;;;1.77;1.45;;;;;;;;;;5051247;28;20205;-84
2022/08/21 04:24:36;;;;;;;2.30;2.20;;;;;;;;;;5051093;28;20232;-85
2022/08/21 04:27:03;;;;;;;1.60;1.50;;;;;;;;;;5051378;28;20781;-84
2022/08/21 04:29:31;;;;;;;1.60;1.50;;;;;;;;;;5051573;28;20317;-84
2022/08/21 04:31:59;;;;;;;1.73;1.63;;;;;;;;;;5050978;28;20317;-85
2022/08/21 04:34:27;;;;;;;2.20;1.77;;;;;;;;;;5051574;28;20661;-85
2022/08/21 04:36:54;;;;;;;2.20;2.00;;;;;;;;;;5051424;28;20500;-85
2022/08/21 04:39:22;;;;;;;1.90;1.73;;;;;;;;;;5051236;28;20222;-85
2022/08/21 04:41:52;;;;;;;2.10;1.90;;;;;;;;;;5051554;28;20623;-84
2022/08/21 04:44:19;;;;;;;2.13;1.90;;;;;;;;;;5051553;28;20700;-85
2022/08/21 04:46:47;;;;;;;2.30;2.10;;;;;;;;;;5050927;28;20198;-85
2022/08/21 04:49:14;;;;;;;2.88;1.98;;;;;;;;;;5051207;28;20729;-85
2022/08/21 04:51:42;;;;;;;3.28;1.95;;;;;;;;;;5051436;28;20320;-85
2022/08/21 04:54:15;;;;;;;2.50;2.33;;;;;;;;;;5050959;28;20229;-85
2022/08/21 04:56:50;;;;;;;2.33;2.17;;;;;;;;;;5051089;28;20285;-85
2022/08/21 04:59:23;;;;;;;2.47;2.28;;;;;;;;;;5053806;28;20221;-85
2022/08/21 05:01:51;;;;;;;3.30;2.83;;;;;;;;;;5055129;28;20233;-85
2022/08/21 05:04:23;;;;;;;2.05;1.95;;;;;;;;;;5054980;28;20197;-85
2022/08/21 05:06:52;;;;;;;2.10;1.92;;;;;;;;;;5054914;28;20205;-84
2022/08/21 05:09:20;;;;;;;2.03;1.92;;;;;;;;;;5055050;28;20313;-85
2022/08/21 05:11:48;;;;;;;2.40;2.20;;;;;;;;;;5054823;28;20317;-84
2022/08/21 05:14:17;;;;;;;2.22;2.13;;;;;;;;;;5054810;28;20213;-84
2022/08/21 05:16:45;;;;;;;2.20;2.10;;;;;;;;;;5054655;28;20666;-84
2022/08/21 05:19:13;;;;;;;2.13;2.03;;;;;;;;;;5054630;28;20233;-84
2022/08/21 05:21:43;;;;;;;1.88;1.77;;;;;;;;;;5054498;28;20280;-85
2022/08/21 05:24:11;;;;;;;2.95;2.22;;;;;;;;;;5054686;28;20225;-85
2022/08/21 05:26:39;;;;;;;2.42;2.25;;;;;;;;;;5054515;28;20289;-85
2022/08/21 05:29:07;;;;;;;1.80;1.70;;;;;;;;;;5054339;28;20204;-85
2022/08/21 05:31:36;;;;;;;1.95;1.83;;;;;;;;;;5054353;28;20591;-85
2022/08/21 05:34:03;;;;;;;3.13;2.33;;;;;;;;;;5054495;28;20236;-85
2022/08/21 05:36:31;;;;;;;2.80;2.60;;;;;;;;;;5054241;28;20251;-85
2022/08/21 05:38:59;;;;;;;1.80;1.70;;;;;;;;;;5054265;28;20666;-85
2022/08/21 05:41:26;;;;;;;2.17;2.08;;;;;;;;;;5054451;28;20212;-81
2022/08/21 05:43:54;;;;;;;3.08;2.45;;;;;;;;;;5053882;28;20236;-81
2022/08/21 05:46:21;;;;;;;2.60;2.40;;;;;;;;;;5054126;28;20198;-81
2022/08/21 05:48:50;;;;;;;1.90;1.80;;;;;;;;;;5053932;28;20229;-81
2022/08/21 05:51:18;;;;;;;2.78;2.58;;;;;;;;;;5053911;28;20234;-81
2022/08/21 05:53:47;;;;;;;2.03;1.92;;;;;;;;;;5054103;28;20202;-81
2022/08/21 05:56:15;;;;;;;1.83;1.73;;;;;;;;;;5053970;28;20210;-81
2022/08/21 05:58:43;;;;;;;3.00;2.63;;;;;;;;;;5054434;28;20396;-82
2022/08/21 06:01:10;;;;;;;2.10;1.98;;;;;;;;;;5054887;28;20222;-82
2022/08/21 06:03:41;;;;;;;2.17;2.08;;;;;;;;;;5054896;28;20193;-82
2022/08/21 06:06:10;;;;;;;2.75;2.55;;;;;;;;;;5054493;28;20290;-82
2022/08/21 06:08:38;;;;;;;4.85;4.10;;;;;;;;;;5053534;28;20202;-82
2022/08/21 06:11:07;;;;;;;3.30;2.85;;;;;;;;;;5052518;28;20260;-82
2022/08/21 06:13:35;;;;;;;3.35;3.05;;;;;;;;;;5054266;28;20295;-82
2022/08/21 06:16:09;;;;;;;2.70;2.50;;;;;;;;;;5053985;28;20208;-82
2022/08/21 06:18:37;;;;;;;3.58;3.15;;;;;;;;;;5053582;28;20297;-82
2022/08/21 06:21:06;;;;;;;2.08;1.88;;;;;;;;;;5053469;28;20325;-81
2022/08/21 06:23:36;;;;;;;2.58;2.38;;;;;;;;;;5053378;28;20230;-82
2022/08/21 06:26:04;;;;;;;2.55;2.17;;;;;;;;;;5053666;28;20233;-82
2022/08/21 06:28:33;;;;;;;2.58;2.38;;;;;;;;;;5053544;28;20567;-82
2022/08/21 06:31:00;;;;;;;2.75;2.55;;;;;;;;;;5053729;28;20351;-82
2022/08/21 06:33:28;;;;;;;2.50;2.30;;;;;;;;;;5053413;28;20304;-82
2022/08/21 06:35:56;;;;;;;2.75;2.55;;;;;;;;;;5053374;28;20240;-82
2022/08/21 06:38:23;;;;;;;3.53;3.22;;;;;;;;;;5052555;28;20661;-82
2022/08/21 06:40:52;;;;;;;4.18;3.78;;;;;;;;;;5053661;28;20793;-82
2022/08/21 06:43:19;;;;;;;3.85;3.55;;;;;;;;;;5052821;28;20288;-81
2022/08/21 06:45:47;;;;;;;2.70;2.50;;;;;;;;;;5053229;28;20296;-82
2022/08/21 06:48:14;;;;;;;2.83;2.20;;;;;;;;;;5053235;28;20232;-82
2022/08/21 06:50:42;;;;;;;3.55;2.67;;;;;;;;;;5081457;22;20312;-81
2022/08/21 06:53:13;;;;;;;2.63;2.42;;;;;;;;;;5067228;28;20220;-82
2022/08/21 06:55:41;;;;;;;2.63;2.42;;;;;;;;;;5076861;28;20223;-82
2022/08/21 06:58:11;;;;;;;3.08;2.78;;;;;;;;;;5075527;28;20193;-81
2022/08/21 07:00:42;;;;;;;3.45;3.08;;;;;;;;;;5076359;28;20320;-82
2022/08/21 07:03:18;;;;;;;2.75;2.47;;;;;;;;;;5076337;28;20634;-82
2022/08/21 07:05:45;;;;;;;2.70;2.50;;;;;;;;;;5075550;28;20236;-82
2022/08/21 07:08:13;;;;;;;3.53;3.28;;;;;;;;;;5076108;28;20284;-82
2022/08/21 07:10:40;;;;;;;2.60;2.40;;;;;;;;;;5076777;28;20370;-81
2022/08/21 07:13:08;;;;;;;4.75;3.05;;;;;;;;;;5076117;28;20257;-82
2022/08/21 07:15:37;;;;;;;5.85;3.28;;;;;;;;;;5076992;28;20237;-82
2022/08/21 07:18:04;;;;;;;3.65;3.25;;;;;;;;;;5075256;28;20255;-82
2022/08/21 07:20:33;;;;;;;2.65;2.40;;;;;;;;;;5069813;28;20658;-82
2022/08/21 07:23:04;;;;;;;3.08;2.67;;;;;;;;;;5056590;28;20205;-82
2022/08/21 07:25:32;;;;;;;3.17;2.90;;;;;;;;;;5055111;28;20239;-82
2022/08/21 07:27:59;;;;;;;2.75;2.55;;;;;;;;;;5055199;28;20240;-82
2022/08/21 07:30:28;;;;;;;3.00;2.78;;;;;;;;;;5056392;28;20221;-82
2022/08/21 07:32:56;;;;;;;2.38;2.28;;;;;;;;;;5056848;28;20312;-82
2022/08/21 07:35:24;;;;;;;6.20;3.65;;;;;;;;;;5054089;28;20292;-82
2022/08/21 07:37:52;;;;;;;4.07;2.63;;;;;;;;;;5055180;28;20241;-82
2022/08/21 07:40:20;;;;;;;2.28;2.08;;;;;;;;;;5054867;28;20721;-82
2022/08/21 07:42:51;;;;;;;2.60;2.40;;;;;;;;;;5055077;28;20197;-83
2022/08/21 07:45:20;;;;;;;2.40;2.20;;;;;;;;;;5055201;28;20197;-82
2022/08/21 07:47:48;;;;;;;2.90;2.70;;;;;;;;;;5054327;28;20688;-82
2022/08/21 07:50:17;;;;;;;3.75;2.42;;;;;;;;;;5053828;28;20325;-83
2022/08/21 07:52:45;;;;;;;2.63;2.20;;;;;;;;;;5055227;28;20256;-83
2022/08/21 07:55:15;;;;;;;1.92;1.83;;;;;;;;;;5054250;28;20296;-83
2022/08/21 07:57:44;;;;;;;2.47;2.20;;;;;;;;;;5054121;28;20209;-83
2022/08/21 08:00:15;;;;;;;2.63;2.42;;;;;;;;;;5053438;28;20225;-82
2022/08/21 08:02:46;;;;;;;4.47;2.92;;;;;;;;;;5054389;28;20607;-82
2022/08/21 08:05:14;;;;;;;4.22;1.80;;;;;;;;;;5054397;28;20241;-83
2022/08/21 08:07:42;;;;;;;4.47;3.40;;;;;;;;;;5053806;28;20263;-83
2022/08/21 08:10:12;;;;;;;2.95;2.05;;;;;;;;;;5053741;28;20698;-82
2022/08/21 08:12:41;;;;;;;5.63;2.25;;;;;;;;;;5053539;28;20263;-83
2022/08/21 08:15:14;;;;;;;2.10;1.90;;;;;;;;;;5054240;28;20240;-82
2022/08/21 08:17:41;;;;;;;5.47;2.88;;;;;;;;;;5052292;28;20659;-81
2022/08/21 08:20:11;;;;;;;2.30;2.00;;;;;;;;;;5053219;28;20249;-83
2022/08/21 08:22:41;;;;;;;2.75;1.80;;;;;;;;;;5053406;28;20709;-83
2022/08/21 08:25:12;;;;;;;2.85;2.03;;;;;;;;;;5052869;28;20201;-82
2022/08/21 08:27:40;;;;;;;2.45;2.13;;;;;;;;;;5053001;28;20208;-82
2022/08/21 08:30:11;;;;;;;2.85;2.33;;;;;;;;;;5052795;28;20224;-82
2022/08/21 08:32:39;;;;;;;3.10;2.22;;;;;;;;;;5051982;28;20237;-83
2022/08/21 08:35:08;;;;;;;11.23;4.50;;;;;;;;;;5055862;28;20871;-82
2022/08/21 08:37:37;;;;;;;2.35;1.92;;;;;;;;;;5055990;28;20205;-83
2022/08/21 08:40:06;;;;;;;3.70;2.63;;;;;;;;;;5056337;28;20247;-81
2022/08/21 08:42:37;;;;;;;2.00;1.80;;;;;;;;;;5056239;28;20237;-83
2022/08/21 08:45:08;;;;;;;3.33;2.28;;;;;;;;;;5055829;28;20237;-83
2022/08/21 08:47:38;;;;;;;3.30;2.25;;;;;;;;;;5055365;28;20204;-82
2022/08/21 08:50:10;;;;;;;3.65;2.28;;;;;;;;;;5055663;28;20680;-82
2022/08/21 08:52:44;;;;;;;2.70;2.17;;;;;;;;;;5054763;28;20210;-82
2022/08/21 08:55:18;;;;;;;2.05;1.95;;;;;;;;;;5055679;28;20212;-80
2022/08/21 08:57:49;;;;;;;2.40;2.20;;;;;;;;;;5055915;28;20211;-80
2022/08/21 09:00:20;;;;;;;5.30;1.90;;;;;;;;;;5055831;28;20656;-83
2022/08/21 09:02:49;;;;;;;4.72;2.45;;;;;;;;;;5056835;28;20708;-82
2022/08/21 09:05:24;;;;;;;2.22;1.95;;;;;;;;;;5056256;28;20240;-81
2022/08/21 09:08:05;;;;;;;2.58;2.20;;;;;;;;;;5055574;28;20219;-82
2022/08/21 09:10:44;;;;;;;3.15;1.52;;;;;;;;;;5056700;28;20245;-83
2022/08/21 09:13:20;;;;;;;3.08;1.60;;;;;;;;;;5056283;28;20235;-83
2022/08/21 09:15:59;;;;;;;2.78;1.48;;;;;;;;;;5056216;28;20236;-82
2022/08/21 09:18:36;;;;;;;1.40;1.30;;;;;;;;;;5055629;28;20212;-82
2022/08/21 09:21:23;;;;;;;2.30;1.80;;;;;;;;;;5054878;28;20260;-82
2022/08/21 09:24:01;;;;;;;3.03;2.47;;;;;;;;;;5055051;28;20284;-82
2022/08/21 09:26:47;;;;;;;2.08;1.70;;;;;;;;;;5055044;28;20237;-82
2022/08/21 09:29:21;;;;;;;3.72;2.25;;;;;;;;;;5055215;28;20209;-82
2022/08/21 09:31:49;;;;;;;2.80;2.40;;;;;;;;;;5054843;28;20210;-82
2022/08/21 09:34:27;;;;;;;2.75;1.85;;;;;;;;;;5056062;28;20237;-82
2022/08/21 09:36:55;;;;;;;1.95;1.85;;;;;;;;;;5055505;28;20585;-82
2022/08/21 09:39:31;;;;;;;6.13;3.38;;;;;;;;;;5055457;28;20236;-81
2022/08/21 09:42:00;;;;;;;2.47;2.28;;;;;;;;;;5055270;28;20205;-82
2022/08/21 09:44:32;;;;;;;2.15;1.83;;;;;;;;;;5053737;28;20289;-82
2022/08/21 09:47:00;;;;;;;3.80;2.60;;;;;;;;;;5054826;28;20198;-82
2022/08/21 09:49:33;;;;;;;4.80;2.60;;;;;;;;;;5054588;28;20263;-82
2022/08/21 09:52:01;;;;;;;2.80;2.55;;;;;;;;;;5054454;28;20237;-81
2022/08/21 09:54:32;;;;;;;2.65;2.00;;;;;;;;;;5054497;28;20596;-82
2022/08/21 09:59:52;;;;;;;3.00;2.28;;;;;;;;;;5055740;28;20224;-82
2022/08/21 10:02:32;;;;;;;2.58;1.90;;;;;;;;;;5055196;28;20308;-83
2022/08/21 10:05:03;;;;;;;3.65;2.00;;;;;;;;;;5057370;28;20232;-82
2022/08/21 10:07:33;;;;;;;3.45;2.05;;;;;;;;;;5054901;28;20692;-82
2022/08/21 10:10:09;;;;;;;3.47;2.50;;;;;;;;;;5056164;28;20253;-81
2022/08/21 10:12:49;;;;;;;2.80;1.95;;;;;;;;;;5056068;28;20233;-83
2022/08/21 10:15:41;;;;;;;4.43;2.13;;;;;;;;;;5055986;28;20275;-82
2022/08/21 10:18:14;;;;;;;2.38;1.98;;;;;;;;;;5057166;28;20234;-82
2022/08/21 10:20:46;;;;;;;2.75;2.00;;;;;;;;;;5055770;28;20261;-82
2022/08/21 10:23:36;;;;;;;3.47;2.00;;;;;;;;;;5057963;28;20206;-82
2022/08/21 10:26:10;;;;;;;2.22;2.03;;;;;;;;;;5057640;28;20642;-82
2022/08/21 10:28:45;;;;;;;1.67;1.58;;;;;;;;;;5056985;28;20231;-83
2022/08/21 10:31:22;;;;;;;1.73;1.60;;;;;;;;;;5057630;28;20255;-82
2022/08/21 10:34:10;;;;;;;1.40;1.30;;;;;;;;;;5055744;28;20241;-83
2022/08/21 10:36:43;;;;;;;1.75;1.65;;;;;;;;;;5056991;28;20263;-83
2022/08/21 10:39:19;;;;;;;2.60;1.80;;;;;;;;;;5056450;28;20680;-82
2022/08/21 10:42:11;;;;;;;2.15;1.73;;;;;;;;;;5055890;28;20201;-83
2022/08/21 10:44:45;;;;;;;1.50;1.35;;;;;;;;;;5057230;28;20202;-83
2022/08/21 10:47:20;;;;;;;2.47;1.88;;;;;;;;;;5055401;28;20231;-83
2022/08/21 10:49:55;;;;;;;2.17;1.98;;;;;;;;;;5055445;28;20232;-82
2022/08/21 10:52:45;;;;;;;3.15;2.20;;;;;;;;;;5035061;28;20205;-83
2022/08/21 10:55:17;;;;;;;1.77;1.67;;;;;;;;;;5029069;28;20633;-83
2022/08/21 10:57:48;;;;;;;1.50;1.40;;;;;;;;;;5047186;28;20193;-83
2022/08/21 11:00:20;;;;;;;1.63;1.48;;;;;;;;;;5055972;28;20230;-83
2022/08/21 11:02:56;;;;;;;2.20;1.95;;;;;;;;;;5056799;28;20194;-82
2022/08/21 11:05:31;;;;;;;2.97;1.98;;;;;;;;;;5054333;28;20677;-83
2022/08/21 11:08:06;;;;;;;2.45;1.95;;;;;;;;;;5053823;28;20189;-82
2022/08/21 11:10:38;;;;;;;2.83;1.90;;;;;;;;;;5051588;28;20217;-82
2022/08/21 11:13:12;;;;;;;2.10;1.92;;;;;;;;;;5052985;28;20206;-82
2022/08/21 11:15:49;;;;;;;1.92;1.80;;;;;;;;;;5040478;28;20253;-84
2022/08/21 11:18:26;;;;;;;2.13;1.52;;;;;;;;;;5039104;28;20209;-83
2022/08/21 11:21:05;;;;;;;1.70;1.60;;;;;;;;;;5038712;28;20229;-83
2022/08/21 11:23:42;;;;;;;2.10;1.77;;;;;;;;;;5038509;28;20198;-82
2022/08/21 11:26:15;;;;;;;1.77;1.67;;;;;;;;;;5037235;28;20202;-83
2022/08/21 11:28:49;;;;;;;3.38;2.40;;;;;;;;;;5037268;28;20206;-83
2022/08/21 11:31:33;;;;;;;2.15;1.90;;;;;;;;;;5037643;28;20234;-83
2022/08/21 11:34:15;;;;;;;1.60;1.50;;;;;;;;;;5039036;28;20570;-83
2022/08/21 11:36:52;;;;;;;1.60;1.50;;;;;;;;;;5039665;28;20700;-83
2022/08/21 11:39:28;;;;;;;2.08;1.50;;;;;;;;;;5037013;28;20539;-83
2022/08/21 11:42:03;;;;;;;1.73;1.63;;;;;;;;;;5037827;28;20263;-83
2022/08/21 11:44:42;;;;;;;1.67;1.55;;;;;;;;;;5037801;28;20209;-80
2022/08/21 11:47:16;;;;;;;1.70;1.50;;;;;;;;;;5039388;28;20674;-83
2022/08/21 11:50:13;;;;;;;1.90;1.80;;;;;;;;;;5038225;28;20234;-82
2022/08/21 11:52:46;;;;;;;3.92;1.50;;;;;;;;;;5057247;28;20199;-82
2022/08/21 11:55:20;;;;;;;1.77;1.67;;;;;;;;;;5058765;28;20714;-83
2022/08/21 11:57:54;;;;;;;1.52;1.42;;;;;;;;;;5056352;28;20611;-82
2022/08/21 12:00:28;;;;;;;1.75;1.65;;;;;;;;;;5055683;28;20260;-83
2022/08/21 12:02:59;;;;;;;1.92;1.83;;;;;;;;;;5056151;28;20201;-81
2022/08/21 12:05:33;;;;;;;3.30;2.22;;;;;;;;;;5058174;28;20206;-82
2022/08/21 12:08:06;;;;;;;2.03;1.60;;;;;;;;;;5055840;28;20201;-82
2022/08/21 12:10:37;;;;;;;1.50;1.40;;;;;;;;;;5058972;28;20610;-83
2022/08/21 12:13:13;;;;;;;1.63;1.50;;;;;;;;;;5056609;28;20206;-83
2022/08/21 12:15:41;;;;;;;1.98;1.88;;;;;;;;;;5055715;28;20235;-82
2022/08/21 12:18:24;;;;;;;1.88;1.52;;;;;;;;;;5056486;28;20276;-82
2022/08/21 12:21:17;;;;;;;1.70;1.52;;;;;;;;;;5057048;28;20271;-83
2022/08/21 12:23:48;;;;;;;2.38;1.52;;;;;;;;;;5058061;28;20205;-83
2022/08/21 12:26:25;;;;;;;2.00;1.70;;;;;;;;;;5055555;28;20194;-83
2022/08/21 12:29:03;;;;;;;2.10;1.85;;;;;;;;;;5056743;28;20214;-83
2022/08/21 12:31:31;;;;;;;3.05;1.90;;;;;;;;;;5057354;28;20259;-83
2022/08/21 12:34:02;;;;;;;3.17;2.35;;;;;;;;;;5055822;28;20210;-82
2022/08/21 12:36:46;;;;;;;1.80;1.67;;;;;;;;;;5055605;28;20221;-83
2022/08/21 12:39:19;;;;;;;1.63;1.52;;;;;;;;;;5054822;28;20664;-83
2022/08/21 12:41:51;;;;;;;2.20;1.50;;;;;;;;;;5054636;28;20256;-82
2022/08/21 12:44:23;;;;;;;2.90;2.35;;;;;;;;;;5056028;28;20192;-83
2022/08/21 12:46:55;;;;;;;2.00;1.45;;;;;;;;;;5055720;28;20203;-83
2022/08/21 12:49:30;;;;;;;1.88;1.75;;;;;;;;;;5055061;28;20206;-83
2022/08/21 12:52:07;;;;;;;1.70;1.58;;;;;;;;;;5062316;22;20229;-82
2022/08/21 12:54:41;;;;;;;1.45;1.35;;;;;;;;;;5055974;28;20616;-82
2022/08/21 12:57:10;;;;;;;1.70;1.60;;;;;;;;;;5055303;28;20226;-82
2022/08/21 12:59:39;;;;;;;1.58;1.48;;;;;;;;;;5055490;28;20209;-82
2022/08/21 13:02:17;;;;;;;1.55;1.30;;;;;;;;;;5055373;28;20198;-82
2022/08/21 13:04:46;;;;;;;1.60;1.50;;;;;;;;;;5071324;22;20232;-82
2022/08/21 13:07:25;;;;;;;1.40;1.30;;;;;;;;;;5063616;28;20201;-82
2022/08/21 13:09:56;;;;;;;1.70;1.60;;;;;;;;;;5065467;28;20206;-83
2022/08/21 13:12:24;;;;;;;1.45;1.35;;;;;;;;;;5061313;28;20206;-82
2022/08/21 13:14:53;;;;;;;1.17;1.13;;;;;;;;;;5060563;28;20257;-82
2022/08/21 13:17:22;;;;;;;1.20;1.20;;;;;;;;;;5059315;28;20616;-82
2022/08/21 13:19:59;;;;;;;1.55;1.45;;;;;;;;;;5060823;28;20275;-82
2022/08/21 13:22:29;;;;;;;1.30;1.20;;;;;;;;;;5064242;28;20225;-82
2022/08/21 13:24:57;;;;;;;3.90;3.60;;;;;;;;;;5062213;28;20288;-81
2022/08/21 13:27:29;;;;;;;2.65;2.53;;;;;;;;;;5063100;28;20222;-82
2022/08/21 13:30:10;;;;;;;1.80;1.70;;;;;;;;;;5064082;28;20205;-82
2022/08/21 13:32:43;;;;;;;1.40;1.30;;;;;;;;;;5063538;28;20198;-81
2022/08/21 13:35:18;;;;;;;1.52;1.42;;;;;;;;;;5064283;28;20226;-80
2022/08/21 13:37:50;;;;;;;1.67;1.58;;;;;;;;;;5063573;28;20260;-82
2022/08/21 13:40:21;;;;;;;1.23;1.23;;;;;;;;;;5063973;28;20229;-81
2022/08/21 13:42:49;;;;;;;1.30;1.20;;;;;;;;;;5064100;28;20287;-82
2022/08/21 13:45:24;;;;;;;1.85;1.60;;;;;;;;;;5063844;28;20642;-82
2022/08/21 13:47:52;;;;;;;1.40;1.30;;;;;;;;;;5063695;28;20286;-82
2022/08/21 13:50:23;;;;;;;1.70;1.60;;;;;;;;;;5064305;28;20205;-81
2022/08/21 13:53:01;;;;;;;1.35;1.33;;;;;;;;;;5063909;28;20735;-82
2022/08/21 13:55:39;;;;;;;1.33;1.23;;;;;;;;;;5064012;28;20296;-82
2022/08/21 13:58:08;;;;;;;1.42;1.33;;;;;;;;;;5064182;28;20568;-80
2022/08/21 14:00:44;;;;;;;2.58;1.50;;;;;;;;;;5065641;28;20237;-81
2022/08/21 14:03:13;;;;;;;1.50;1.40;;;;;;;;;;5063208;28;20319;-80
2022/08/21 14:05:47;;;;;;;1.80;1.70;;;;;;;;;;5064393;28;20685;-80
2022/08/21 14:08:21;;;;;;;1.65;1.55;;;;;;;;;;5064452;28;20202;-81
2022/08/21 14:10:51;;;;;;;2.63;2.25;;;;;;;;;;5064926;28;20197;-80
2022/08/21 14:13:36;;;;;;;2.00;1.90;;;;;;;;;;5064578;28;20227;-81
2022/08/21 14:16:11;;;;;;;2.35;2.13;;;;;;;;;;5063607;28;20201;-80
2022/08/21 14:18:47;;;;;;;1.67;1.58;;;;;;;;;;5064356;28;20201;-80
2022/08/21 14:21:15;;;;;;;1.77;1.67;;;;;;;;;;5065197;28;20558;-81
2022/08/21 14:23:44;;;;;;;1.40;1.30;;;;;;;;;;5062381;28;20232;-80
2022/08/21 14:26:12;;;;;;;1.20;1.05;;;;;;;;;;5065126;28;20229;-81
2022/08/21 14:28:41;;;;;;;1.58;1.48;;;;;;;;;;5065272;28;20197;-80
2022/08/21 14:31:16;;;;;;;1.05;1.05;;;;;;;;;;5064489;28;20206;-81
2022/08/21 14:33:44;;;;;;;1.00;1.00;;;;;;;;;;5065132;28;20216;-80
2022/08/21 14:36:12;;;;;;;1.13;1.10;;;;;;;;;;5064654;28;20210;-80
2022/08/21 14:38:41;;;;;;;1.20;1.10;;;;;;;;;;5064506;28;20201;-80
2022/08/21 14:41:17;;;;;;;1.10;1.00;;;;;;;;;;5065001;28;20202;-81
2022/08/21 14:43:45;;;;;;;1.20;1.10;;;;;;;;;;5064305;28;20237;-81
2022/08/21 14:46:14;;;;;;;1.30;1.20;;;;;;;;;;5064554;28;20469;-81
2022/08/21 14:48:42;;;;;;;1.10;1.00;;;;;;;;;;5064790;28;20220;-81
2022/08/21 14:51:10;;;;;;;1.30;1.20;;;;;;;;;;5065069;28;20210;-80
2022/08/21 14:53:37;;;;;;;1.08;1.00;;;;;;;;;;5065335;28;20694;-79
2022/08/21 14:56:06;;;;;;;1.40;1.30;;;;;;;;;;5065359;28;20590;-80
2022/08/21 14:58:38;;;;;;;1.08;1.05;;;;;;;;;;5065067;28;20221;-80
2022/08/21 15:01:07;;;;;;;0.80;0.80;;;;;;;;;;5065572;28;20206;-79
2022/08/21 15:03:35;;;;;;;1.10;1.10;;;;;;;;;;5065638;28;20262;-80
2022/08/21 15:06:04;;;;;;;1.40;1.30;;;;;;;;;;5062402;28;20649;-80
2022/08/21 15:08:31;;;;;;;1.75;1.45;;;;;;;;;;5063394;28;20208;-82